sensor_id;sensor_type;location;lat;lon;timestamp;P1;durP1;ratioP1;P2;durP2;ratioP2
78222;SDS011;67497;53.058;21.618;2023-03-02T00:00:45;143.77;;;39.05;;
78222;SDS011;67497;53.058;21.618;2023-03-02T00:02:46;164.52;;;40.15;;
78222;SDS011;67497;53.058;21.618;2023-03-02T00:04:54;142.32;;;39.70;;
78222;SDS011;67497;53.058;21.618;2023-03-02T00:06:59;144.38;;;39.97;;
78222;SDS011;67497;53.058;21.618;2023-03-02T00:09:02;132.93;;;37.47;;
78222;SDS011;67497;53.058;21.618;2023-03-02T00:11:05;154.82;;;38.88;;
78222;SDS011;67497;53.058;21.618;2023-03-02T00:13:05;131.60;;;37.33;;
78222;SDS011;67497;53.058;21.618;2023-03-02T00:15:06;139.27;;;37.60;;
78222;SDS011;67497;53.058;21.618;2023-03-02T00:17:07;145.40;;;38.63;;
78222;SDS011;67497;53.058;21.618;2023-03-02T00:19:09;141.18;;;38.63;;
78222;SDS011;67497;53.058;21.618;2023-03-02T00:21:09;133.25;;;36.80;;
78222;SDS011;67497;53.058;21.618;2023-03-02T00:23:10;150.10;;;37.55;;
78222;SDS011;67497;53.058;21.618;2023-03-02T00:25:12;145.77;;;40.15;;
78222;SDS011;67497;53.058;21.618;2023-03-02T00:27:14;149.65;;;42.65;;
78222;SDS011;67497;53.058;21.618;2023-03-02T00:29:14;126.78;;;36.58;;
78222;SDS011;67497;53.058;21.618;2023-03-02T00:31:15;141.00;;;37.42;;
78222;SDS011;67497;53.058;21.618;2023-03-02T00:33:15;151.57;;;40.53;;
78222;SDS011;67497;53.058;21.618;2023-03-02T00:35:16;170.25;;;43.50;;
78222;SDS011;67497;53.058;21.618;2023-03-02T00:37:17;145.98;;;38.35;;
78222;SDS011;67497;53.058;21.618;2023-03-02T00:39:17;148.70;;;39.03;;
78222;SDS011;67497;53.058;21.618;2023-03-02T00:41:19;152.70;;;41.78;;
78222;SDS011;67497;53.058;21.618;2023-03-02T00:43:20;146.05;;;39.97;;
78222;SDS011;67497;53.058;21.618;2023-03-02T00:45:26;146.00;;;40.72;;
78222;SDS011;67497;53.058;21.618;2023-03-02T00:47:29;152.95;;;39.58;;
78222;SDS011;67497;53.058;21.618;2023-03-02T00:49:33;148.88;;;43.70;;
78222;SDS011;67497;53.058;21.618;2023-03-02T00:51:33;159.40;;;40.95;;
78222;SDS011;67497;53.058;21.618;2023-03-02T00:53:34;150.60;;;43.88;;
78222;SDS011;67497;53.058;21.618;2023-03-02T00:55:35;161.70;;;43.00;;
78222;SDS011;67497;53.058;21.618;2023-03-02T00:57:37;151.73;;;41.60;;
78222;SDS011;67497;53.058;21.618;2023-03-02T00:59:37;157.45;;;43.17;;
78222;SDS011;67497;53.058;21.618;2023-03-02T01:01:38;153.70;;;44.03;;
78222;SDS011;67497;53.058;21.618;2023-03-02T01:03:38;153.15;;;42.63;;
78222;SDS011;67497;53.058;21.618;2023-03-02T01:05:39;164.27;;;41.03;;
78222;SDS011;67497;53.058;21.618;2023-03-02T01:07:39;169.73;;;46.45;;
78222;SDS011;67497;53.058;21.618;2023-03-02T01:09:41;161.65;;;41.25;;
78222;SDS011;67497;53.058;21.618;2023-03-02T01:13:43;154.38;;;42.28;;
78222;SDS011;67497;53.058;21.618;2023-03-02T01:15:44;171.82;;;43.40;;
78222;SDS011;67497;53.058;21.618;2023-03-02T01:17:45;182.80;;;41.80;;
78222;SDS011;67497;53.058;21.618;2023-03-02T01:19:46;177.52;;;46.78;;
78222;SDS011;67497;53.058;21.618;2023-03-02T01:21:47;162.10;;;44.08;;
78222;SDS011;67497;53.058;21.618;2023-03-02T01:23:48;167.95;;;41.45;;
78222;SDS011;67497;53.058;21.618;2023-03-02T01:25:48;177.55;;;45.40;;
78222;SDS011;67497;53.058;21.618;2023-03-02T01:27:49;173.43;;;44.20;;
78222;SDS011;67497;53.058;21.618;2023-03-02T01:29:49;173.25;;;44.25;;
78222;SDS011;67497;53.058;21.618;2023-03-02T01:31:50;181.38;;;45.47;;
78222;SDS011;67497;53.058;21.618;2023-03-02T01:33:50;178.95;;;43.42;;
78222;SDS011;67497;53.058;21.618;2023-03-02T01:35:51;179.43;;;44.50;;
78222;SDS011;67497;53.058;21.618;2023-03-02T01:37:52;176.70;;;46.35;;
78222;SDS011;67497;53.058;21.618;2023-03-02T01:39:52;184.65;;;44.67;;
78222;SDS011;67497;53.058;21.618;2023-03-02T01:41:53;178.65;;;43.92;;
78222;SDS011;67497;53.058;21.618;2023-03-02T01:43:53;193.32;;;46.97;;
78222;SDS011;67497;53.058;21.618;2023-03-02T01:46:02;208.27;;;47.85;;
78222;SDS011;67497;53.058;21.618;2023-03-02T01:48:07;189.85;;;49.05;;
78222;SDS011;67497;53.058;21.618;2023-03-02T01:50:28;190.18;;;47.00;;
78222;SDS011;67497;53.058;21.618;2023-03-02T01:52:29;182.85;;;46.78;;
78222;SDS011;67497;53.058;21.618;2023-03-02T01:54:32;177.65;;;46.65;;
78222;SDS011;67497;53.058;21.618;2023-03-02T01:56:35;200.40;;;46.75;;
78222;SDS011;67497;53.058;21.618;2023-03-02T01:58:38;189.50;;;45.53;;
78222;SDS011;67497;53.058;21.618;2023-03-02T02:00:39;212.98;;;50.53;;
78222;SDS011;67497;53.058;21.618;2023-03-02T02:02:40;183.00;;;48.95;;
78222;SDS011;67497;53.058;21.618;2023-03-02T02:04:41;198.10;;;48.03;;
78222;SDS011;67497;53.058;21.618;2023-03-02T02:06:47;197.23;;;52.00;;
78222;SDS011;67497;53.058;21.618;2023-03-02T02:08:53;197.57;;;49.03;;
78222;SDS011;67497;53.058;21.618;2023-03-02T02:10:56;206.68;;;53.33;;
78222;SDS011;67497;53.058;21.618;2023-03-02T02:12:57;205.45;;;53.47;;
78222;SDS011;67497;53.058;21.618;2023-03-02T02:14:58;197.77;;;48.05;;
78222;SDS011;67497;53.058;21.618;2023-03-02T02:17:00;205.15;;;46.88;;
78222;SDS011;67497;53.058;21.618;2023-03-02T02:19:01;204.93;;;52.60;;
78222;SDS011;67497;53.058;21.618;2023-03-02T02:21:06;193.68;;;52.45;;
78222;SDS011;67497;53.058;21.618;2023-03-02T02:27:35;199.70;;;50.65;;
78222;SDS011;67497;53.058;21.618;2023-03-02T02:29:36;204.43;;;52.17;;
78222;SDS011;67497;53.058;21.618;2023-03-02T02:31:46;205.23;;;48.40;;
78222;SDS011;67497;53.058;21.618;2023-03-02T02:33:52;215.63;;;50.58;;
78222;SDS011;67497;53.058;21.618;2023-03-02T02:36:09;200.98;;;50.45;;
78222;SDS011;67497;53.058;21.618;2023-03-02T02:38:17;205.27;;;46.55;;
78222;SDS011;67497;53.058;21.618;2023-03-02T02:40:21;205.18;;;53.03;;
78222;SDS011;67497;53.058;21.618;2023-03-02T02:42:42;206.65;;;48.65;;
78222;SDS011;67497;53.058;21.618;2023-03-02T02:44:45;197.65;;;48.30;;
78222;SDS011;67497;53.058;21.618;2023-03-02T02:46:46;207.93;;;52.17;;
78222;SDS011;67497;53.058;21.618;2023-03-02T02:48:47;216.82;;;49.80;;
78222;SDS011;67497;53.058;21.618;2023-03-02T02:50:47;227.38;;;51.75;;
78222;SDS011;67497;53.058;21.618;2023-03-02T02:52:50;216.23;;;51.22;;
78222;SDS011;67497;53.058;21.618;2023-03-02T02:54:56;208.00;;;51.88;;
78222;SDS011;67497;53.058;21.618;2023-03-02T02:56:58;187.00;;;47.28;;
78222;SDS011;67497;53.058;21.618;2023-03-02T02:59:06;207.60;;;51.53;;
78222;SDS011;67497;53.058;21.618;2023-03-02T03:01:29;198.82;;;48.92;;
78222;SDS011;67497;53.058;21.618;2023-03-02T03:03:31;218.65;;;50.72;;
78222;SDS011;67497;53.058;21.618;2023-03-02T03:05:36;215.07;;;51.92;;
78222;SDS011;67497;53.058;21.618;2023-03-02T03:07:36;208.45;;;49.15;;
78222;SDS011;67497;53.058;21.618;2023-03-02T03:09:38;210.60;;;50.67;;
78222;SDS011;67497;53.058;21.618;2023-03-02T03:11:39;215.55;;;51.03;;
78222;SDS011;67497;53.058;21.618;2023-03-02T03:13:42;206.02;;;49.45;;
78222;SDS011;67497;53.058;21.618;2023-03-02T03:15:45;229.75;;;50.20;;
78222;SDS011;67497;53.058;21.618;2023-03-02T03:17:51;232.35;;;50.35;;
78222;SDS011;67497;53.058;21.618;2023-03-02T03:19:54;199.07;;;48.25;;
78222;SDS011;67497;53.058;21.618;2023-03-02T03:22:02;205.75;;;48.58;;
78222;SDS011;67497;53.058;21.618;2023-03-02T03:24:02;202.45;;;46.38;;
78222;SDS011;67497;53.058;21.618;2023-03-02T03:26:04;195.05;;;48.33;;
78222;SDS011;67497;53.058;21.618;2023-03-02T03:28:05;229.90;;;49.97;;
78222;SDS011;67497;53.058;21.618;2023-03-02T03:30:06;198.50;;;47.38;;
78222;SDS011;67497;53.058;21.618;2023-03-02T03:32:07;202.90;;;48.17;;
78222;SDS011;67497;53.058;21.618;2023-03-02T03:34:08;204.15;;;46.33;;
78222;SDS011;67497;53.058;21.618;2023-03-02T03:36:08;215.00;;;48.88;;
78222;SDS011;67497;53.058;21.618;2023-03-02T03:38:09;211.15;;;47.80;;
78222;SDS011;67497;53.058;21.618;2023-03-02T03:40:10;204.75;;;47.55;;
78222;SDS011;67497;53.058;21.618;2023-03-02T03:42:10;205.60;;;46.58;;
78222;SDS011;67497;53.058;21.618;2023-03-02T03:44:11;183.30;;;45.88;;
78222;SDS011;67497;53.058;21.618;2023-03-02T03:46:11;200.68;;;47.15;;
78222;SDS011;67497;53.058;21.618;2023-03-02T03:48:12;195.50;;;46.90;;
78222;SDS011;67497;53.058;21.618;2023-03-02T03:50:12;208.30;;;48.17;;
78222;SDS011;67497;53.058;21.618;2023-03-02T03:52:13;217.63;;;47.08;;
78222;SDS011;67497;53.058;21.618;2023-03-02T03:54:13;202.90;;;46.60;;
78222;SDS011;67497;53.058;21.618;2023-03-02T03:56:14;197.18;;;49.72;;
78222;SDS011;67497;53.058;21.618;2023-03-02T03:58:14;206.38;;;45.50;;
78222;SDS011;67497;53.058;21.618;2023-03-02T04:00:15;208.77;;;48.38;;
78222;SDS011;67497;53.058;21.618;2023-03-02T04:02:16;189.05;;;45.22;;
78222;SDS011;67497;53.058;21.618;2023-03-02T04:04:21;189.48;;;45.92;;
78222;SDS011;67497;53.058;21.618;2023-03-02T04:06:27;188.73;;;47.70;;
78222;SDS011;67497;53.058;21.618;2023-03-02T04:08:27;216.63;;;49.50;;
78222;SDS011;67497;53.058;21.618;2023-03-02T04:10:28;180.43;;;45.15;;
78222;SDS011;67497;53.058;21.618;2023-03-02T04:12:29;210.90;;;46.55;;
78222;SDS011;67497;53.058;21.618;2023-03-02T04:14:30;192.15;;;46.65;;
78222;SDS011;67497;53.058;21.618;2023-03-02T04:16:31;184.40;;;41.95;;
78222;SDS011;67497;53.058;21.618;2023-03-02T04:18:32;190.57;;;45.00;;
78222;SDS011;67497;53.058;21.618;2023-03-02T04:20:33;193.80;;;47.85;;
78222;SDS011;67497;53.058;21.618;2023-03-02T04:22:33;177.45;;;41.38;;
78222;SDS011;67497;53.058;21.618;2023-03-02T04:24:34;193.88;;;44.72;;
78222;SDS011;67497;53.058;21.618;2023-03-02T04:26:36;202.73;;;48.22;;
78222;SDS011;67497;53.058;21.618;2023-03-02T04:28:37;200.15;;;46.92;;
78222;SDS011;67497;53.058;21.618;2023-03-02T04:30:38;194.85;;;47.05;;
78222;SDS011;67497;53.058;21.618;2023-03-02T04:32:38;181.38;;;46.85;;
78222;SDS011;67497;53.058;21.618;2023-03-02T04:34:39;191.68;;;43.50;;
78222;SDS011;67497;53.058;21.618;2023-03-02T04:36:40;201.00;;;44.85;;
78222;SDS011;67497;53.058;21.618;2023-03-02T04:38:41;191.32;;;47.25;;
78222;SDS011;67497;53.058;21.618;2023-03-02T04:40:41;207.13;;;47.33;;
78222;SDS011;67497;53.058;21.618;2023-03-02T04:42:42;182.15;;;43.60;;
78222;SDS011;67497;53.058;21.618;2023-03-02T04:44:43;180.10;;;43.28;;
78222;SDS011;67497;53.058;21.618;2023-03-02T04:46:44;185.35;;;46.92;;
78222;SDS011;67497;53.058;21.618;2023-03-02T04:48:45;215.73;;;47.75;;
78222;SDS011;67497;53.058;21.618;2023-03-02T04:50:46;182.27;;;46.03;;
78222;SDS011;67497;53.058;21.618;2023-03-02T04:52:47;182.93;;;44.70;;
78222;SDS011;67497;53.058;21.618;2023-03-02T04:54:49;171.43;;;42.35;;
78222;SDS011;67497;53.058;21.618;2023-03-02T04:56:49;172.90;;;43.80;;
78222;SDS011;67497;53.058;21.618;2023-03-02T04:58:50;201.57;;;49.72;;
78222;SDS011;67497;53.058;21.618;2023-03-02T05:00:51;196.38;;;46.28;;
78222;SDS011;67497;53.058;21.618;2023-03-02T05:02:53;180.07;;;43.03;;
78222;SDS011;67497;53.058;21.618;2023-03-02T05:04:54;188.52;;;43.63;;
78222;SDS011;67497;53.058;21.618;2023-03-02T05:06:55;207.48;;;46.80;;
78222;SDS011;67497;53.058;21.618;2023-03-02T05:08:56;191.88;;;43.53;;
78222;SDS011;67497;53.058;21.618;2023-03-02T05:10:59;168.15;;;43.00;;
78222;SDS011;67497;53.058;21.618;2023-03-02T05:12:59;190.73;;;46.75;;
78222;SDS011;67497;53.058;21.618;2023-03-02T05:15:04;191.38;;;46.17;;
78222;SDS011;67497;53.058;21.618;2023-03-02T05:17:05;190.18;;;44.55;;
78222;SDS011;67497;53.058;21.618;2023-03-02T05:19:06;190.80;;;44.75;;
78222;SDS011;67497;53.058;21.618;2023-03-02T05:21:08;203.05;;;45.47;;
78222;SDS011;67497;53.058;21.618;2023-03-02T05:23:15;186.38;;;44.00;;
78222;SDS011;67497;53.058;21.618;2023-03-02T05:25:23;179.52;;;47.38;;
78222;SDS011;67497;53.058;21.618;2023-03-02T05:27:24;192.90;;;46.30;;
78222;SDS011;67497;53.058;21.618;2023-03-02T05:29:25;182.77;;;44.70;;
78222;SDS011;67497;53.058;21.618;2023-03-02T05:33:30;198.63;;;45.17;;
78222;SDS011;67497;53.058;21.618;2023-03-02T05:35:31;182.88;;;44.45;;
78222;SDS011;67497;53.058;21.618;2023-03-02T05:37:31;179.98;;;44.20;;
78222;SDS011;67497;53.058;21.618;2023-03-02T05:39:32;185.48;;;44.17;;
78222;SDS011;67497;53.058;21.618;2023-03-02T05:41:33;183.77;;;41.88;;
78222;SDS011;67497;53.058;21.618;2023-03-02T05:43:34;195.13;;;43.92;;
78222;SDS011;67497;53.058;21.618;2023-03-02T05:45:36;180.07;;;43.45;;
78222;SDS011;67497;53.058;21.618;2023-03-02T05:47:37;171.00;;;40.35;;
78222;SDS011;67497;53.058;21.618;2023-03-02T05:49:38;196.52;;;43.83;;
78222;SDS011;67497;53.058;21.618;2023-03-02T05:51:38;185.40;;;42.47;;
78222;SDS011;67497;53.058;21.618;2023-03-02T05:53:39;191.20;;;42.05;;
78222;SDS011;67497;53.058;21.618;2023-03-02T05:55:39;180.68;;;43.78;;
78222;SDS011;67497;53.058;21.618;2023-03-02T05:57:40;178.65;;;43.97;;
78222;SDS011;67497;53.058;21.618;2023-03-02T05:59:41;188.93;;;44.42;;
78222;SDS011;67497;53.058;21.618;2023-03-02T06:01:41;190.60;;;42.13;;
78222;SDS011;67497;53.058;21.618;2023-03-02T06:03:42;188.90;;;45.72;;
78222;SDS011;67497;53.058;21.618;2023-03-02T06:05:43;195.80;;;44.13;;
78222;SDS011;67497;53.058;21.618;2023-03-02T06:07:43;177.40;;;43.85;;
78222;SDS011;67497;53.058;21.618;2023-03-02T06:09:44;200.63;;;43.45;;
78222;SDS011;67497;53.058;21.618;2023-03-02T06:11:45;190.88;;;43.40;;
78222;SDS011;67497;53.058;21.618;2023-03-02T06:13:45;182.32;;;42.25;;
78222;SDS011;67497;53.058;21.618;2023-03-02T06:15:46;194.43;;;45.63;;
78222;SDS011;67497;53.058;21.618;2023-03-02T06:17:46;182.38;;;42.92;;
78222;SDS011;67497;53.058;21.618;2023-03-02T06:19:47;195.77;;;45.58;;
78222;SDS011;67497;53.058;21.618;2023-03-02T06:21:48;187.20;;;42.63;;
78222;SDS011;67497;53.058;21.618;2023-03-02T06:23:48;192.90;;;44.92;;
78222;SDS011;67497;53.058;21.618;2023-03-02T06:25:49;181.63;;;43.55;;
78222;SDS011;67497;53.058;21.618;2023-03-02T06:27:50;179.70;;;43.63;;
78222;SDS011;67497;53.058;21.618;2023-03-02T06:29:52;212.48;;;48.92;;
78222;SDS011;67497;53.058;21.618;2023-03-02T06:31:53;185.80;;;47.58;;
78222;SDS011;67497;53.058;21.618;2023-03-02T06:33:53;187.48;;;44.25;;
78222;SDS011;67497;53.058;21.618;2023-03-02T06:35:54;184.63;;;46.13;;
78222;SDS011;67497;53.058;21.618;2023-03-02T06:37:54;181.68;;;47.00;;
78222;SDS011;67497;53.058;21.618;2023-03-02T06:39:55;189.25;;;44.55;;
78222;SDS011;67497;53.058;21.618;2023-03-02T06:41:56;192.13;;;45.85;;
78222;SDS011;67497;53.058;21.618;2023-03-02T06:44:00;196.82;;;45.67;;
78222;SDS011;67497;53.058;21.618;2023-03-02T06:46:01;203.50;;;45.92;;
78222;SDS011;67497;53.058;21.618;2023-03-02T06:48:01;192.45;;;44.10;;
78222;SDS011;67497;53.058;21.618;2023-03-02T06:50:03;195.85;;;44.10;;
78222;SDS011;67497;53.058;21.618;2023-03-02T06:52:04;202.30;;;46.05;;
78222;SDS011;67497;53.058;21.618;2023-03-02T06:54:06;192.15;;;45.65;;
78222;SDS011;67497;53.058;21.618;2023-03-02T06:56:07;189.85;;;43.08;;
78222;SDS011;67497;53.058;21.618;2023-03-02T06:58:07;178.18;;;41.72;;
78222;SDS011;67497;53.058;21.618;2023-03-02T07:00:12;205.07;;;50.08;;
78222;SDS011;67497;53.058;21.618;2023-03-02T07:02:16;180.88;;;43.25;;
78222;SDS011;67497;53.058;21.618;2023-03-02T07:04:16;185.95;;;44.30;;
78222;SDS011;67497;53.058;21.618;2023-03-02T07:06:17;188.05;;;46.63;;
78222;SDS011;67497;53.058;21.618;2023-03-02T07:08:17;182.23;;;43.85;;
78222;SDS011;67497;53.058;21.618;2023-03-02T07:10:18;180.93;;;45.10;;
78222;SDS011;67497;53.058;21.618;2023-03-02T07:12:18;182.23;;;46.92;;
78222;SDS011;67497;53.058;21.618;2023-03-02T07:14:19;168.60;;;42.45;;
78222;SDS011;67497;53.058;21.618;2023-03-02T07:16:19;177.15;;;44.63;;
78222;SDS011;67497;53.058;21.618;2023-03-02T07:18:20;174.88;;;44.33;;
78222;SDS011;67497;53.058;21.618;2023-03-02T07:20:20;167.18;;;40.10;;
78222;SDS011;67497;53.058;21.618;2023-03-02T07:22:21;164.10;;;40.88;;
78222;SDS011;67497;53.058;21.618;2023-03-02T07:24:21;167.70;;;41.22;;
78222;SDS011;67497;53.058;21.618;2023-03-02T07:26:22;165.07;;;41.80;;
78222;SDS011;67497;53.058;21.618;2023-03-02T07:28:23;159.90;;;42.00;;
78222;SDS011;67497;53.058;21.618;2023-03-02T07:30:24;159.85;;;38.38;;
78222;SDS011;67497;53.058;21.618;2023-03-02T07:32:25;155.27;;;40.72;;
78222;SDS011;67497;53.058;21.618;2023-03-02T07:34:26;164.30;;;42.92;;
78222;SDS011;67497;53.058;21.618;2023-03-02T07:36:26;158.68;;;40.15;;
78222;SDS011;67497;53.058;21.618;2023-03-02T07:38:27;158.68;;;42.47;;
78222;SDS011;67497;53.058;21.618;2023-03-02T07:40:28;192.85;;;42.70;;
78222;SDS011;67497;53.058;21.618;2023-03-02T07:42:28;160.82;;;39.22;;
78222;SDS011;67497;53.058;21.618;2023-03-02T07:44:29;144.18;;;38.50;;
78222;SDS011;67497;53.058;21.618;2023-03-02T07:46:30;166.75;;;39.20;;
78222;SDS011;67497;53.058;21.618;2023-03-02T07:48:30;174.68;;;44.35;;
78222;SDS011;67497;53.058;21.618;2023-03-02T07:50:31;149.10;;;35.80;;
78222;SDS011;67497;53.058;21.618;2023-03-02T07:52:32;161.27;;;43.30;;
78222;SDS011;67497;53.058;21.618;2023-03-02T07:54:33;151.70;;;36.00;;
78222;SDS011;67497;53.058;21.618;2023-03-02T07:56:33;149.55;;;38.70;;
78222;SDS011;67497;53.058;21.618;2023-03-02T07:58:34;131.30;;;37.20;;
78222;SDS011;67497;53.058;21.618;2023-03-02T08:00:35;162.70;;;38.50;;
78222;SDS011;67497;53.058;21.618;2023-03-02T08:02:35;151.35;;;37.03;;
78222;SDS011;67497;53.058;21.618;2023-03-02T08:04:36;135.60;;;36.05;;
78222;SDS011;67497;53.058;21.618;2023-03-02T08:06:36;128.65;;;36.25;;
78222;SDS011;67497;53.058;21.618;2023-03-02T08:08:37;131.27;;;36.35;;
78222;SDS011;67497;53.058;21.618;2023-03-02T08:10:38;139.63;;;37.65;;
78222;SDS011;67497;53.058;21.618;2023-03-02T08:12:38;132.05;;;34.80;;
78222;SDS011;67497;53.058;21.618;2023-03-02T08:14:39;132.75;;;34.80;;
78222;SDS011;67497;53.058;21.618;2023-03-02T08:16:40;135.05;;;34.28;;
78222;SDS011;67497;53.058;21.618;2023-03-02T08:18:40;133.05;;;35.05;;
78222;SDS011;67497;53.058;21.618;2023-03-02T08:20:41;132.18;;;38.10;;
78222;SDS011;67497;53.058;21.618;2023-03-02T08:22:42;142.40;;;37.28;;
78222;SDS011;67497;53.058;21.618;2023-03-02T08:24:42;130.32;;;32.53;;
78222;SDS011;67497;53.058;21.618;2023-03-02T08:26:43;144.40;;;35.78;;
78222;SDS011;67497;53.058;21.618;2023-03-02T08:28:44;128.75;;;33.70;;
78222;SDS011;67497;53.058;21.618;2023-03-02T08:30:53;123.25;;;32.55;;
78222;SDS011;67497;53.058;21.618;2023-03-02T08:32:54;136.55;;;33.30;;
78222;SDS011;67497;53.058;21.618;2023-03-02T08:34:55;125.45;;;32.63;;
78222;SDS011;67497;53.058;21.618;2023-03-02T08:36:55;128.20;;;34.92;;
78222;SDS011;67497;53.058;21.618;2023-03-02T08:38:56;126.10;;;33.92;;
78222;SDS011;67497;53.058;21.618;2023-03-02T08:40:56;129.50;;;34.22;;
78222;SDS011;67497;53.058;21.618;2023-03-02T08:42:57;120.35;;;32.03;;
78222;SDS011;67497;53.058;21.618;2023-03-02T08:44:58;127.95;;;34.17;;
78222;SDS011;67497;53.058;21.618;2023-03-02T08:46:58;109.03;;;30.15;;
78222;SDS011;67497;53.058;21.618;2023-03-02T08:48:59;123.40;;;30.67;;
78222;SDS011;67497;53.058;21.618;2023-03-02T08:51:04;125.13;;;33.80;;
78222;SDS011;67497;53.058;21.618;2023-03-02T08:53:07;112.80;;;30.63;;
78222;SDS011;67497;53.058;21.618;2023-03-02T08:55:07;113.70;;;30.52;;
78222;SDS011;67497;53.058;21.618;2023-03-02T08:57:09;105.55;;;29.40;;
78222;SDS011;67497;53.058;21.618;2023-03-02T08:59:11;111.75;;;29.58;;
78222;SDS011;67497;53.058;21.618;2023-03-02T09:01:14;116.18;;;30.52;;
78222;SDS011;67497;53.058;21.618;2023-03-02T09:03:17;114.18;;;29.40;;
78222;SDS011;67497;53.058;21.618;2023-03-02T09:05:18;117.53;;;29.45;;
78222;SDS011;67497;53.058;21.618;2023-03-02T09:07:18;109.45;;;31.83;;
78222;SDS011;67497;53.058;21.618;2023-03-02T09:09:19;110.15;;;27.48;;
78222;SDS011;67497;53.058;21.618;2023-03-02T09:11:19;100.18;;;29.02;;
78222;SDS011;67497;53.058;21.618;2023-03-02T09:13:20;90.90;;;26.63;;
78222;SDS011;67497;53.058;21.618;2023-03-02T09:15:21;112.05;;;26.65;;
78222;SDS011;67497;53.058;21.618;2023-03-02T09:17:22;102.95;;;27.25;;
78222;SDS011;67497;53.058;21.618;2023-03-02T09:19:22;101.20;;;25.67;;
78222;SDS011;67497;53.058;21.618;2023-03-02T09:21:23;99.03;;;25.77;;
78222;SDS011;67497;53.058;21.618;2023-03-02T09:23:24;83.60;;;25.42;;
78222;SDS011;67497;53.058;21.618;2023-03-02T09:27:26;93.93;;;25.60;;
78222;SDS011;67497;53.058;21.618;2023-03-02T09:29:27;98.30;;;26.23;;
78222;SDS011;67497;53.058;21.618;2023-03-02T09:31:28;96.55;;;25.98;;
78222;SDS011;67497;53.058;21.618;2023-03-02T09:33:29;95.53;;;24.73;;
78222;SDS011;67497;53.058;21.618;2023-03-02T09:35:30;88.38;;;24.27;;
78222;SDS011;67497;53.058;21.618;2023-03-02T09:37:30;86.22;;;23.95;;
78222;SDS011;67497;53.058;21.618;2023-03-02T09:39:31;87.38;;;25.35;;
78222;SDS011;67497;53.058;21.618;2023-03-02T09:41:43;79.00;;;21.13;;
78222;SDS011;67497;53.058;21.618;2023-03-02T09:48:19;86.63;;;22.23;;
78222;SDS011;67497;53.058;21.618;2023-03-02T09:50:32;107.68;;;23.42;;
78222;SDS011;67497;53.058;21.618;2023-03-02T09:52:35;89.22;;;22.02;;
78222;SDS011;67497;53.058;21.618;2023-03-02T09:54:39;77.93;;;19.95;;
78222;SDS011;67497;53.058;21.618;2023-03-02T09:56:44;89.35;;;22.13;;
78222;SDS011;67497;53.058;21.618;2023-03-02T09:58:51;73.80;;;20.40;;
78222;SDS011;67497;53.058;21.618;2023-03-02T10:00:59;81.72;;;21.85;;
78222;SDS011;67497;53.058;21.618;2023-03-02T10:03:03;71.03;;;19.30;;
78222;SDS011;67497;53.058;21.618;2023-03-02T10:05:07;73.63;;;20.08;;
78222;SDS011;67497;53.058;21.618;2023-03-02T10:07:18;75.93;;;19.48;;
78222;SDS011;67497;53.058;21.618;2023-03-02T10:09:25;67.97;;;19.00;;
78222;SDS011;67497;53.058;21.618;2023-03-02T10:11:30;72.63;;;18.60;;
78222;SDS011;67497;53.058;21.618;2023-03-02T10:18:17;65.75;;;18.50;;
78222;SDS011;67497;53.058;21.618;2023-03-02T10:20:21;91.35;;;22.30;;
78222;SDS011;67497;53.058;21.618;2023-03-02T10:22:28;83.75;;;21.20;;
78222;SDS011;67497;53.058;21.618;2023-03-02T10:24:50;72.90;;;18.05;;
78222;SDS011;67497;53.058;21.618;2023-03-02T10:27:15;68.03;;;19.05;;
78222;SDS011;67497;53.058;21.618;2023-03-02T10:29:27;68.47;;;17.05;;
78222;SDS011;67497;53.058;21.618;2023-03-02T10:31:40;71.00;;;16.52;;
78222;SDS011;67497;53.058;21.618;2023-03-02T10:33:42;62.83;;;16.50;;
78222;SDS011;67497;53.058;21.618;2023-03-02T10:35:50;58.00;;;14.65;;
78222;SDS011;67497;53.058;21.618;2023-03-02T10:38:01;69.25;;;16.98;;
78222;SDS011;67497;53.058;21.618;2023-03-02T10:40:37;56.85;;;16.30;;
78222;SDS011;67497;53.058;21.618;2023-03-02T10:42:43;59.13;;;17.08;;
78222;SDS011;67497;53.058;21.618;2023-03-02T10:44:47;71.30;;;17.60;;
78222;SDS011;67497;53.058;21.618;2023-03-02T10:46:50;59.08;;;15.90;;
78222;SDS011;67497;53.058;21.618;2023-03-02T10:48:53;58.55;;;16.30;;
78222;SDS011;67497;53.058;21.618;2023-03-02T10:51:00;67.63;;;17.65;;
78222;SDS011;67497;53.058;21.618;2023-03-02T10:53:00;53.65;;;15.50;;
78222;SDS011;67497;53.058;21.618;2023-03-02T10:55:02;78.00;;;19.38;;
78222;SDS011;67497;53.058;21.618;2023-03-02T11:01:44;207.15;;;59.38;;
78222;SDS011;67497;53.058;21.618;2023-03-02T11:04:01;220.60;;;79.22;;
78222;SDS011;67497;53.058;21.618;2023-03-02T11:06:16;185.65;;;66.22;;
78222;SDS011;67497;53.058;21.618;2023-03-02T11:08:26;180.05;;;64.25;;
78222;SDS011;67497;53.058;21.618;2023-03-02T11:10:29;150.35;;;52.17;;
78222;SDS011;67497;53.058;21.618;2023-03-02T11:12:44;164.38;;;49.75;;
78222;SDS011;67497;53.058;21.618;2023-03-02T11:14:46;154.25;;;49.42;;
78222;SDS011;67497;53.058;21.618;2023-03-02T11:16:47;142.20;;;44.53;;
78222;SDS011;67497;53.058;21.618;2023-03-02T11:21:05;133.00;;;43.03;;
78222;SDS011;67497;53.058;21.618;2023-03-02T11:25:57;126.68;;;39.05;;
78222;SDS011;67497;53.058;21.618;2023-03-02T11:28:16;111.03;;;37.17;;
78222;SDS011;67497;53.058;21.618;2023-03-02T11:30:33;112.25;;;35.65;;
78222;SDS011;67497;53.058;21.618;2023-03-02T11:33:01;105.68;;;33.72;;
78222;SDS011;67497;53.058;21.618;2023-03-02T11:37:29;108.30;;;31.80;;
78222;SDS011;67497;53.058;21.618;2023-03-02T11:40:02;107.63;;;29.73;;
78222;SDS011;67497;53.058;21.618;2023-03-02T11:42:18;91.38;;;28.63;;
78222;SDS011;67497;53.058;21.618;2023-03-02T11:44:21;100.15;;;29.75;;
78222;SDS011;67497;53.058;21.618;2023-03-02T11:46:24;96.05;;;28.67;;
78222;SDS011;67497;53.058;21.618;2023-03-02T11:50:49;77.72;;;21.88;;
78222;SDS011;67497;53.058;21.618;2023-03-02T11:53:05;84.88;;;24.20;;
78222;SDS011;67497;53.058;21.618;2023-03-02T11:55:22;73.97;;;21.00;;
78222;SDS011;67497;53.058;21.618;2023-03-02T11:57:36;66.95;;;21.30;;
78222;SDS011;67497;53.058;21.618;2023-03-02T11:59:39;69.95;;;20.95;;
78222;SDS011;67497;53.058;21.618;2023-03-02T12:01:40;83.53;;;18.35;;
78222;SDS011;67497;53.058;21.618;2023-03-02T12:03:44;66.43;;;20.38;;
78222;SDS011;67497;53.058;21.618;2023-03-02T12:05:57;92.43;;;20.67;;
78222;SDS011;67497;53.058;21.618;2023-03-02T12:08:02;87.60;;;18.90;;
78222;SDS011;67497;53.058;21.618;2023-03-02T12:10:29;62.35;;;17.48;;
78222;SDS011;67497;53.058;21.618;2023-03-02T12:14:40;50.55;;;16.15;;
78222;SDS011;67497;53.058;21.618;2023-03-02T12:16:42;87.22;;;16.80;;